createdAt,value
2023-06-29T00:01:59.788Z,18.52
2023-06-29T00:04:27.281Z,21.67
2023-06-29T00:06:55.603Z,16.77
2023-06-29T00:09:23.791Z,19.48
2023-06-29T00:11:51.100Z,18.10
2023-06-29T00:14:18.199Z,20.52
2023-06-29T00:16:45.256Z,21.90
2023-06-29T00:19:15.604Z,20.40
2023-06-29T00:21:42.649Z,18.83
2023-06-29T00:24:12.288Z,18.63
2023-06-29T00:26:39.497Z,16.58
2023-06-29T00:29:06.903Z,23.48
2023-06-29T00:31:34.301Z,20.90
2023-06-29T00:34:01.500Z,18.48
2023-06-29T00:36:28.511Z,21.75
2023-06-29T00:38:55.633Z,26.27
2023-06-29T00:41:22.608Z,17.25
2023-06-29T00:43:49.753Z,19.35
2023-06-29T00:46:21.263Z,22.15
2023-06-29T00:48:48.968Z,18.27
2023-06-29T00:51:17.373Z,18.30
2023-06-29T00:53:45.230Z,23.40
2023-06-29T00:56:12.432Z,19.95
2023-06-29T00:58:39.573Z,20.38
2023-06-29T01:01:06.296Z,20.95
2023-06-29T01:03:33.698Z,18.75
2023-06-29T01:06:05.656Z,21.88
2023-06-29T01:08:42.227Z,18.90
2023-06-29T01:11:10.396Z,19.60
2023-06-29T01:13:39.223Z,18.88
2023-06-29T01:16:07.431Z,21.17
2023-06-29T01:18:35.412Z,19.35
2023-06-29T01:21:03.626Z,31.73
2023-06-29T01:23:38.065Z,25.17
2023-06-29T01:26:06.483Z,20.63
2023-06-29T01:28:39.210Z,23.90
2023-06-29T01:31:06.674Z,26.05
2023-06-29T01:33:34.478Z,20.13
2023-06-29T01:36:10.741Z,22.00
2023-06-29T01:38:52.813Z,22.10
2023-06-29T01:41:21.653Z,23.92
2023-06-29T01:43:49.388Z,21.00
2023-06-29T01:46:16.763Z,23.20
2023-06-29T01:48:44.118Z,22.58
2023-06-29T01:51:11.452Z,28.75
2023-06-29T01:53:38.666Z,22.98
2023-06-29T01:56:06.014Z,27.23
2023-06-29T01:58:32.788Z,27.67
2023-06-29T02:00:59.542Z,25.13
2023-06-29T02:03:26.642Z,24.95
2023-06-29T02:05:53.598Z,24.50
2023-06-29T02:08:20.570Z,25.38
2023-06-29T02:10:47.619Z,26.85
2023-06-29T02:13:14.773Z,21.73
2023-06-29T02:15:41.935Z,26.65
2023-06-29T02:18:09.324Z,23.60
2023-06-29T02:20:36.244Z,23.58
2023-06-29T02:23:03.330Z,29.10
2023-06-29T02:25:30.342Z,23.40
2023-06-29T02:27:57.353Z,24.85
2023-06-29T02:30:24.146Z,27.25
2023-06-29T02:32:51.116Z,26.75
2023-06-29T02:35:18.075Z,31.58
2023-06-29T02:37:45.175Z,28.10
2023-06-29T02:40:12.633Z,23.00
2023-06-29T02:42:39.867Z,24.67
2023-06-29T02:45:07.563Z,23.35
2023-06-29T02:47:34.647Z,23.52
2023-06-29T02:50:02.365Z,24.05
2023-06-29T02:52:29.480Z,23.48
2023-06-29T02:54:56.621Z,26.33
2023-06-29T02:57:23.575Z,24.30
2023-06-29T02:59:50.273Z,24.60
2023-06-29T03:02:17.354Z,27.58
2023-06-29T03:04:44.378Z,26.45
2023-06-29T03:07:11.420Z,24.40
2023-06-29T03:09:38.409Z,24.33
2023-06-29T03:12:05.825Z,31.83
2023-06-29T03:14:32.915Z,27.17
2023-06-29T03:17:00.018Z,22.67
2023-06-29T03:19:27.033Z,26.13
2023-06-29T03:21:54.420Z,28.80
2023-06-29T03:24:21.546Z,27.20
2023-06-29T03:26:48.653Z,31.55
2023-06-29T03:29:15.671Z,22.52
2023-06-29T03:31:42.699Z,26.83
2023-06-29T03:34:09.718Z,28.20
2023-06-29T03:36:36.789Z,32.85
2023-06-29T03:39:04.865Z,38.13
2023-06-29T03:41:31.831Z,28.15
2023-06-29T03:43:58.770Z,29.83
2023-06-29T03:46:25.816Z,28.48
2023-06-29T03:48:52.944Z,27.90
2023-06-29T03:51:19.887Z,30.48
2023-06-29T03:53:46.927Z,26.80
2023-06-29T03:56:13.997Z,25.33
2023-06-29T03:58:41.050Z,31.88
2023-06-29T04:01:07.813Z,27.63
2023-06-29T04:03:34.894Z,24.58
2023-06-29T04:06:01.798Z,25.75
2023-06-29T04:08:29.202Z,26.70
2023-06-29T04:10:56.313Z,29.95
2023-06-29T04:13:23.293Z,28.17
2023-06-29T04:15:50.383Z,32.60
2023-06-29T04:18:17.559Z,28.88
2023-06-29T04:20:45.404Z,27.38
2023-06-29T04:23:16.588Z,26.45
2023-06-29T04:25:43.999Z,25.27
2023-06-29T04:28:13.585Z,26.38
2023-06-29T04:33:11.793Z,26.10
2023-06-29T04:35:43.748Z,29.40
2023-06-29T04:38:14.336Z,26.90
2023-06-29T04:40:41.447Z,29.25
2023-06-29T04:43:08.426Z,73.43
2023-06-29T04:45:35.546Z,27.85
2023-06-29T04:48:02.740Z,26.23
2023-06-29T04:50:36.296Z,27.80
2023-06-29T04:53:10.965Z,29.17
2023-06-29T04:55:39.007Z,31.45
2023-06-29T04:58:06.672Z,30.67
2023-06-29T05:00:34.061Z,30.02
2023-06-29T05:03:01.632Z,28.20
2023-06-29T05:05:28.614Z,31.60
2023-06-29T05:07:55.647Z,23.70
2023-06-29T05:10:24.316Z,26.75
2023-06-29T05:12:51.459Z,26.02
2023-06-29T05:15:18.518Z,29.20
2023-06-29T05:17:45.678Z,30.13
2023-06-29T05:20:15.274Z,30.70
2023-06-29T05:22:42.030Z,32.10
2023-06-29T05:25:09.351Z,34.38
2023-06-29T05:27:36.489Z,26.25
2023-06-29T05:30:04.060Z,25.30
2023-06-29T05:32:31.487Z,35.00
2023-06-29T05:34:58.532Z,29.85
2023-06-29T05:37:25.943Z,23.05
2023-06-29T05:39:53.020Z,35.90
2023-06-29T05:42:20.073Z,26.98
2023-06-29T05:44:47.111Z,28.75
2023-06-29T05:47:14.115Z,29.77
2023-06-29T05:49:41.227Z,27.85
2023-06-29T05:52:08.329Z,31.83
2023-06-29T05:54:35.424Z,35.50
2023-06-29T05:57:02.392Z,28.27
2023-06-29T05:59:30.972Z,31.63
2023-06-29T06:01:58.294Z,31.63
2023-06-29T06:04:25.862Z,29.67
2023-06-29T06:06:53.062Z,30.05
2023-06-29T06:09:20.094Z,30.20
2023-06-29T06:11:47.121Z,25.85
2023-06-29T06:14:13.853Z,35.05
2023-06-29T06:16:40.796Z,27.98
2023-06-29T06:19:07.642Z,29.88
2023-06-29T06:21:34.344Z,23.38
2023-06-29T06:24:01.068Z,28.73
2023-06-29T06:26:27.803Z,35.03
2023-06-29T06:28:54.522Z,34.40
2023-06-29T06:31:32.758Z,26.27
2023-06-29T06:34:01.447Z,28.23
2023-06-29T06:36:32.233Z,29.25
2023-06-29T06:38:59.710Z,30.63
2023-06-29T06:41:26.573Z,33.95
2023-06-29T06:43:53.404Z,27.05
2023-06-29T06:46:20.379Z,28.90
2023-06-29T06:48:49.178Z,29.02
2023-06-29T06:51:16.203Z,32.65
2023-06-29T06:53:42.935Z,33.90
2023-06-29T06:56:09.779Z,34.28
2023-06-29T06:58:36.615Z,34.00
2023-06-29T07:01:03.500Z,32.70
2023-06-29T07:03:30.348Z,30.73
2023-06-29T07:05:59.066Z,31.42
2023-06-29T07:08:26.169Z,28.77
2023-06-29T07:10:53.129Z,31.48
2023-06-29T07:13:19.876Z,33.10
2023-06-29T07:15:47.600Z,27.60
2023-06-29T07:18:14.319Z,29.13
2023-06-29T07:25:41.121Z,40.70
2023-06-29T07:28:07.950Z,32.83
2023-06-29T07:30:34.813Z,41.40
2023-06-29T07:33:01.806Z,30.35
2023-06-29T07:35:28.709Z,29.92
2023-06-29T07:37:55.489Z,28.95
2023-06-29T07:40:22.987Z,34.00
2023-06-29T07:42:49.811Z,28.77
2023-06-29T07:45:16.566Z,29.67
2023-06-29T07:47:43.548Z,30.48
2023-06-29T07:50:11.909Z,30.80
2023-06-29T07:52:39.068Z,32.70
2023-06-29T07:55:06.001Z,30.48
2023-06-29T08:00:02.476Z,29.92
2023-06-29T08:02:29.314Z,34.28
2023-06-29T08:07:25.865Z,29.70
2023-06-29T08:09:52.720Z,54.00
2023-06-29T08:12:19.470Z,47.47
2023-06-29T08:14:46.187Z,33.60
2023-06-29T08:17:12.885Z,35.70
2023-06-29T08:19:39.658Z,32.47
2023-06-29T08:22:06.517Z,33.65
2023-06-29T08:24:33.268Z,32.05
2023-06-29T08:27:00.144Z,34.35
2023-06-29T08:29:26.994Z,33.45
2023-06-29T08:31:53.827Z,46.10
2023-06-29T08:34:20.689Z,29.30
2023-06-29T08:36:47.668Z,37.65
2023-06-29T08:39:14.964Z,38.10
2023-06-29T08:41:42.604Z,34.13
2023-06-29T08:44:09.401Z,35.88
2023-06-29T08:46:38.652Z,31.25
2023-06-29T08:51:38.077Z,31.10
2023-06-29T08:54:05.071Z,34.92
2023-06-29T08:56:32.262Z,29.67
2023-06-29T08:58:59.102Z,38.97
2023-06-29T09:01:26.058Z,43.20
2023-06-29T09:03:53.316Z,43.47
2023-06-29T09:06:20.776Z,33.28
2023-06-29T09:08:47.653Z,48.22
2023-06-29T09:11:14.542Z,35.13
2023-06-29T09:13:41.338Z,36.67
2023-06-29T09:16:08.481Z,38.88
2023-06-29T09:18:35.556Z,32.65
2023-06-29T09:21:04.440Z,33.22
2023-06-29T09:23:31.342Z,33.58
2023-06-29T09:25:58.580Z,43.00
2023-06-29T09:28:26.988Z,39.55
2023-06-29T09:30:53.839Z,35.58
2023-06-29T09:33:26.564Z,37.05
2023-06-29T09:35:54.362Z,32.65
2023-06-29T09:38:21.592Z,35.42
2023-06-29T09:40:52.580Z,37.33
2023-06-29T09:43:26.903Z,29.98
2023-06-29T09:46:10.896Z,35.80
2023-06-29T09:51:24.360Z,52.55
2023-06-29T09:53:51.621Z,33.17
2023-06-29T09:56:18.872Z,33.10
2023-06-29T09:58:47.452Z,40.40
2023-06-29T10:01:16.788Z,38.88
2023-06-29T10:03:44.849Z,35.15
2023-06-29T10:06:22.859Z,38.67
2023-06-29T10:08:55.475Z,33.97
2023-06-29T10:11:27.843Z,45.17
2023-06-29T10:14:03.878Z,43.67
2023-06-29T10:16:34.281Z,34.72
2023-06-29T10:19:10.806Z,37.83
2023-06-29T10:21:37.926Z,37.58
2023-06-29T10:24:05.701Z,35.72
2023-06-29T10:26:32.918Z,38.60
2023-06-29T10:28:59.880Z,37.28
2023-06-29T10:31:35.724Z,45.28
2023-06-29T10:34:06.790Z,38.88
2023-06-29T10:36:52.898Z,38.45
2023-06-29T10:39:48.639Z,42.53
2023-06-29T10:42:24.288Z,36.42
2023-06-29T10:44:51.354Z,38.72
2023-06-29T10:47:31.757Z,39.33
2023-06-29T10:50:15.027Z,35.25
2023-06-29T10:52:43.816Z,37.30
2023-06-29T10:55:22.057Z,34.63
2023-06-29T10:58:15.864Z,37.23
2023-06-29T11:00:43.480Z,36.67
2023-06-29T11:03:13.379Z,41.15
2023-06-29T11:05:40.444Z,45.90
2023-06-29T11:08:08.390Z,36.03
2023-06-29T11:10:36.077Z,33.65
2023-06-29T11:13:09.093Z,38.75
2023-06-29T11:15:36.209Z,40.97
2023-06-29T11:18:08.006Z,39.22
2023-06-29T11:20:38.757Z,38.67
2023-06-29T11:23:06.160Z,38.20
2023-06-29T11:25:32.997Z,42.80
2023-06-29T11:28:00.181Z,41.10
2023-06-29T11:30:27.014Z,43.40
2023-06-29T11:32:55.089Z,35.17
2023-06-29T11:35:23.228Z,41.35
2023-06-29T11:37:52.354Z,42.10
2023-06-29T11:42:50.158Z,35.72
2023-06-29T11:45:18.386Z,39.78
2023-06-29T11:47:47.801Z,39.72
2023-06-29T11:50:14.686Z,39.17
2023-06-29T11:52:42.480Z,42.53
2023-06-29T11:55:12.098Z,37.08
2023-06-29T11:57:40.236Z,42.63
2023-06-29T12:00:26.965Z,37.47
2023-06-29T12:02:53.992Z,38.60
2023-06-29T12:05:26.273Z,36.13
2023-06-29T12:07:53.111Z,35.08
2023-06-29T12:10:26.198Z,47.03
2023-06-29T12:13:00.328Z,33.67
2023-06-29T12:15:29.022Z,38.28
2023-06-29T12:18:16.627Z,34.03
2023-06-29T12:20:47.181Z,39.95
2023-06-29T12:23:15.384Z,35.60
2023-06-29T12:25:52.899Z,32.60
2023-06-29T12:28:20.208Z,34.78
2023-06-29T12:30:47.070Z,35.45
2023-06-29T12:33:14.749Z,32.70
2023-06-29T12:35:41.669Z,42.00
2023-06-29T12:38:08.536Z,34.85
2023-06-29T12:40:35.674Z,35.03
2023-06-29T12:43:02.559Z,34.70
2023-06-29T12:45:29.478Z,35.50
2023-06-29T12:47:56.482Z,35.90
2023-06-29T12:50:23.272Z,31.52
2023-06-29T12:52:50.265Z,35.50
2023-06-29T12:55:17.471Z,35.08
2023-06-29T12:57:45.242Z,33.83
2023-06-29T13:00:13.715Z,30.00
2023-06-29T13:02:41.605Z,28.73
2023-06-29T13:05:09.223Z,28.75
2023-06-29T13:07:36.987Z,29.45
2023-06-29T13:10:05.223Z,36.17
2023-06-29T13:12:32.371Z,36.28
2023-06-29T13:15:00.335Z,39.08
2023-06-29T13:17:27.277Z,51.90
2023-06-29T13:19:54.158Z,33.72
2023-06-29T13:22:20.944Z,32.33
2023-06-29T13:24:48.348Z,35.78
2023-06-29T13:27:15.502Z,33.40
2023-06-29T13:29:42.335Z,37.92
2023-06-29T13:32:09.720Z,45.08
2023-06-29T13:34:36.509Z,36.05
2023-06-29T13:37:03.544Z,34.45
2023-06-29T13:39:31.012Z,34.63
2023-06-29T13:41:57.829Z,31.95
2023-06-29T13:44:24.623Z,33.85
2023-06-29T13:46:51.601Z,33.70
2023-06-29T13:49:18.507Z,30.67
2023-06-29T13:51:46.975Z,35.22
2023-06-29T13:54:16.342Z,29.23
2023-06-29T13:56:43.667Z,32.53
2023-06-29T13:59:10.940Z,31.45
2023-06-29T14:01:39.783Z,24.33
2023-06-29T14:04:08.489Z,28.50
2023-06-29T14:06:41.393Z,30.60
2023-06-29T14:09:10.376Z,26.05
2023-06-29T14:11:38.382Z,23.00
2023-06-29T14:14:05.433Z,27.63
2023-06-29T14:16:32.931Z,21.70
2023-06-29T14:19:01.472Z,20.75
2023-06-29T14:21:29.036Z,21.33
2023-06-29T14:23:56.394Z,25.42
2023-06-29T14:26:23.776Z,21.42
2023-06-29T14:28:50.570Z,18.30
2023-06-29T14:31:18.697Z,21.95
2023-06-29T14:33:46.271Z,24.60
2023-06-29T14:36:13.745Z,19.42
2023-06-29T14:38:40.598Z,19.00
2023-06-29T14:41:07.350Z,20.27
2023-06-29T14:43:34.179Z,16.83
2023-06-29T14:46:00.951Z,16.45
2023-06-29T14:48:27.840Z,17.45
2023-06-29T14:50:55.051Z,16.70
2023-06-29T14:53:22.947Z,14.73
2023-06-29T14:55:50.152Z,14.57
2023-06-29T14:58:17.889Z,17.67
2023-06-29T15:00:45.929Z,17.70
2023-06-29T15:03:13.032Z,11.60
2023-06-29T15:05:40.037Z,25.50
2023-06-29T15:08:06.777Z,18.38
2023-06-29T15:10:33.589Z,19.77
2023-06-29T15:13:00.351Z,20.77
2023-06-29T15:15:27.198Z,17.80
2023-06-29T15:17:54.026Z,17.05
2023-06-29T15:20:20.927Z,21.92
2023-06-29T15:22:47.635Z,17.25
2023-06-29T15:25:14.520Z,18.20
2023-06-29T15:27:41.650Z,22.75
2023-06-29T15:30:08.810Z,20.52
2023-06-29T15:32:35.864Z,20.73
2023-06-29T15:35:04.021Z,21.00
2023-06-29T15:37:34.559Z,21.83
2023-06-29T15:40:02.406Z,32.45
2023-06-29T15:42:29.652Z,28.90
2023-06-29T15:44:56.636Z,31.33
2023-06-29T15:47:24.674Z,27.77
2023-06-29T15:49:52.426Z,37.88
2023-06-29T15:52:19.450Z,24.42
2023-06-29T15:54:47.266Z,22.98
2023-06-29T15:57:14.113Z,24.80
2023-06-29T15:59:40.952Z,21.40
2023-06-29T16:02:08.766Z,18.25
2023-06-29T16:04:36.531Z,16.90
2023-06-29T16:07:08.356Z,20.20
2023-06-29T16:09:38.221Z,14.88
2023-06-29T16:12:06.266Z,19.65
2023-06-29T16:14:33.515Z,14.95
2023-06-29T16:17:02.000Z,15.30
2023-06-29T16:19:28.848Z,14.27
2023-06-29T16:21:55.620Z,13.68
2023-06-29T16:24:22.331Z,14.32
2023-06-29T16:26:49.859Z,11.65
2023-06-29T16:29:18.509Z,21.95
2023-06-29T16:31:47.678Z,10.05
2023-06-29T16:34:15.152Z,11.20
2023-06-29T16:36:42.236Z,10.52
2023-06-29T16:39:09.301Z,13.95
2023-06-29T16:41:37.528Z,17.08
2023-06-29T16:44:04.741Z,10.82
2023-06-29T16:46:31.863Z,12.30
2023-06-29T16:49:01.568Z,13.20
2023-06-29T16:51:29.976Z,12.63
2023-06-29T16:54:00.343Z,13.63
2023-06-29T16:56:30.183Z,14.48
2023-06-29T16:58:57.396Z,10.68
2023-06-29T17:01:24.447Z,10.32
2023-06-29T17:03:51.443Z,8.52
2023-06-29T17:06:18.359Z,9.85
2023-06-29T17:08:46.045Z,14.02
2023-06-29T17:11:13.116Z,10.90
2023-06-29T17:13:40.698Z,8.18
2023-06-29T17:16:08.177Z,8.07
2023-06-29T17:18:35.721Z,5.38
2023-06-29T17:21:02.945Z,7.10
2023-06-29T17:23:29.882Z,4.05
2023-06-29T17:25:57.007Z,5.47
2023-06-29T17:28:25.348Z,12.93
2023-06-29T17:30:53.031Z,5.53
2023-06-29T17:33:21.728Z,8.95
2023-06-29T17:35:49.004Z,8.80
2023-06-29T17:38:16.154Z,4.70
2023-06-29T17:40:43.250Z,4.80
2023-06-29T17:43:10.246Z,9.13
2023-06-29T17:45:38.273Z,4.35
2023-06-29T17:48:09.768Z,7.32
2023-06-29T17:50:37.551Z,5.70
2023-06-29T17:53:05.823Z,6.80
2023-06-29T17:55:33.013Z,13.30
2023-06-29T17:58:00.685Z,7.30
2023-06-29T18:00:27.530Z,11.43
2023-06-29T18:02:54.407Z,11.93
2023-06-29T18:05:21.508Z,19.77
2023-06-29T18:07:49.679Z,12.77
2023-06-29T18:10:16.693Z,16.30
2023-06-29T18:12:44.860Z,15.45
2023-06-29T18:15:12.788Z,16.50
2023-06-29T18:17:40.088Z,15.50
2023-06-29T18:20:07.797Z,15.23
2023-06-29T18:22:35.204Z,22.13
2023-06-29T18:25:02.422Z,16.10
2023-06-29T18:27:30.591Z,16.88
2023-06-29T18:29:57.297Z,17.42
2023-06-29T18:32:24.273Z,16.75
2023-06-29T18:34:53.383Z,12.70
2023-06-29T18:37:21.237Z,10.07
2023-06-29T18:39:49.049Z,14.15
2023-06-29T18:42:18.197Z,6.28
2023-06-29T18:44:45.245Z,7.22
2023-06-29T18:47:14.932Z,6.22
2023-06-29T18:49:52.154Z,5.40
2023-06-29T18:52:20.624Z,3.85
2023-06-29T18:54:48.600Z,3.35
2023-06-29T18:57:15.764Z,2.95
2023-06-29T18:59:43.698Z,2.92
2023-06-29T19:02:11.010Z,2.35
2023-06-29T19:04:37.968Z,2.10
2023-06-29T19:07:05.304Z,2.50
2023-06-29T19:09:32.657Z,2.25
2023-06-29T19:12:03.327Z,3.58
2023-06-29T19:14:31.155Z,4.05
2023-06-29T19:16:58.236Z,5.03
2023-06-29T19:19:26.133Z,5.85
2023-06-29T19:21:53.419Z,2.63
2023-06-29T19:24:20.767Z,2.88
2023-06-29T19:26:50.661Z,3.45
2023-06-29T19:29:20.790Z,4.25
2023-06-29T19:31:47.875Z,4.05
2023-06-29T19:34:14.993Z,3.38
2023-06-29T19:36:42.055Z,4.70
2023-06-29T19:39:10.408Z,3.90
2023-06-29T19:41:37.394Z,2.42
2023-06-29T19:44:05.505Z,4.55
2023-06-29T19:46:32.863Z,3.92
2023-06-29T19:49:00.011Z,8.93
2023-06-29T19:51:34.451Z,5.22
2023-06-29T19:54:02.006Z,4.20
2023-06-29T19:56:29.257Z,3.67
2023-06-29T19:58:56.447Z,1.55
2023-06-29T20:01:23.304Z,2.95
2023-06-29T20:04:42.628Z,1.75
2023-06-29T20:07:27.015Z,2.80
2023-06-29T20:09:54.058Z,1.92
2023-06-29T20:12:46.389Z,5.53
2023-06-29T20:15:33.619Z,4.30
2023-06-29T20:18:01.680Z,2.25
2023-06-29T20:20:29.567Z,4.93
2023-06-29T20:23:02.080Z,4.22
2023-06-29T20:25:35.167Z,2.92
2023-06-29T20:28:02.128Z,3.13
2023-06-29T20:30:30.032Z,5.75
2023-06-29T20:32:57.988Z,2.45
2023-06-29T20:35:24.942Z,2.63
2023-06-29T20:37:51.657Z,2.75
2023-06-29T20:40:19.637Z,2.58
2023-06-29T20:42:48.571Z,2.97
2023-06-29T20:45:17.662Z,6.40
2023-06-29T20:47:44.809Z,6.55
2023-06-29T20:50:12.193Z,3.08
2023-06-29T20:52:40.524Z,4.60
2023-06-29T20:55:08.931Z,7.25
2023-06-29T20:57:38.448Z,2.38
2023-06-29T21:00:08.025Z,4.53
2023-06-29T21:05:05.735Z,3.33
2023-06-29T21:07:32.750Z,3.35
2023-06-29T21:10:01.776Z,1.42
2023-06-29T21:12:29.209Z,5.13
2023-06-29T21:14:56.312Z,4.70
2023-06-29T21:17:24.772Z,1.83
2023-06-29T21:19:52.855Z,2.65
2023-06-29T21:22:19.952Z,5.15
2023-06-29T21:24:49.789Z,3.55
2023-06-29T21:27:19.931Z,2.00
2023-06-29T21:29:49.396Z,5.90
2023-06-29T21:32:16.862Z,5.30
2023-06-29T21:34:49.697Z,2.47
2023-06-29T21:37:16.972Z,7.55
2023-06-29T21:39:44.191Z,3.55
2023-06-29T21:42:12.209Z,5.38
2023-06-29T21:44:39.235Z,1.90
2023-06-29T21:47:06.425Z,2.90
2023-06-29T21:49:33.453Z,3.65
2023-06-29T21:52:00.309Z,3.00
2023-06-29T21:54:27.319Z,3.05
2023-06-29T21:56:54.471Z,4.93
2023-06-29T21:59:21.469Z,5.15
2023-06-29T22:01:48.546Z,5.13
2023-06-29T22:04:15.619Z,3.50
2023-06-29T22:06:42.599Z,3.20
2023-06-29T22:09:09.642Z,4.55
2023-06-29T22:11:39.823Z,3.45
2023-06-29T22:14:12.168Z,2.38
2023-06-29T22:16:39.071Z,4.18
2023-06-29T22:19:06.308Z,2.92
2023-06-29T22:21:35.079Z,4.10
2023-06-29T22:24:04.476Z,7.37
2023-06-29T22:26:33.399Z,3.47
2023-06-29T22:29:00.636Z,3.35
2023-06-29T22:31:40.158Z,2.78
2023-06-29T22:34:15.747Z,3.22
2023-06-29T22:36:48.610Z,3.88
2023-06-29T22:39:16.400Z,2.30
2023-06-29T22:41:48.862Z,4.65
2023-06-29T22:44:16.624Z,4.72
2023-06-29T22:46:43.795Z,2.78
2023-06-29T22:49:10.516Z,1.60
2023-06-29T22:51:37.358Z,6.38
2023-06-29T22:54:05.389Z,7.80
2023-06-29T22:56:32.390Z,3.35
2023-06-29T22:59:12.853Z,6.70
2023-06-29T23:01:41.138Z,2.28
2023-06-29T23:04:08.710Z,2.88
2023-06-29T23:06:40.709Z,4.75
2023-06-29T23:09:11.913Z,4.45
2023-06-29T23:11:42.224Z,6.72
2023-06-29T23:14:18.630Z,5.85
2023-06-29T23:16:47.873Z,2.35
2023-06-29T23:19:15.210Z,8.75
2023-06-29T23:21:42.321Z,4.82
2023-06-29T23:24:18.132Z,6.28
2023-06-29T23:26:47.226Z,10.27
2023-06-29T23:29:18.384Z,5.05
2023-06-29T23:31:48.473Z,5.43
2023-06-29T23:34:15.441Z,5.53
2023-06-29T23:36:42.412Z,9.18
2023-06-29T23:39:13.473Z,3.35
2023-06-29T23:41:41.452Z,3.72
2023-06-29T23:44:11.158Z,2.60
2023-06-29T23:46:46.540Z,5.45
2023-06-29T23:49:17.063Z,5.03
2023-06-29T23:51:51.567Z,2.72
2023-06-29T23:54:19.592Z,6.10
2023-06-29T23:56:47.556Z,3.03
2023-06-29T23:59:14.499Z,6.30
